sensor_id;sensor_type;location;lat;lon;timestamp;P1;durP1;ratioP1;P2;durP2;ratioP2
10029;SDS011;5055;52.054;8.524;2023-09-08T00:00:17;0.20;;;0.20;;
10029;SDS011;5055;52.054;8.524;2023-09-08T00:02:46;0.20;;;0.20;;
10029;SDS011;5055;52.054;8.524;2023-09-08T00:05:16;0.20;;;0.20;;
10029;SDS011;5055;52.054;8.524;2023-09-08T00:07:44;0.17;;;0.17;;
10029;SDS011;5055;52.054;8.524;2023-09-08T00:10:12;0.20;;;0.20;;
10029;SDS011;5055;52.054;8.524;2023-09-08T00:12:41;0.20;;;0.20;;
10029;SDS011;5055;52.054;8.524;2023-09-08T00:15:10;0.20;;;0.20;;
10029;SDS011;5055;52.054;8.524;2023-09-08T00:17:39;0.20;;;0.20;;
10029;SDS011;5055;52.054;8.524;2023-09-08T00:20:07;0.20;;;0.20;;
10029;SDS011;5055;52.054;8.524;2023-09-08T00:22:38;0.20;;;0.20;;
10029;SDS011;5055;52.054;8.524;2023-09-08T00:25:06;0.20;;;0.20;;
10029;SDS011;5055;52.054;8.524;2023-09-08T00:27:35;0.20;;;0.20;;
10029;SDS011;5055;52.054;8.524;2023-09-08T00:30:04;0.20;;;0.20;;
10029;SDS011;5055;52.054;8.524;2023-09-08T00:32:33;0.20;;;0.20;;
10029;SDS011;5055;52.054;8.524;2023-09-08T00:35:02;0.17;;;0.17;;
10029;SDS011;5055;52.054;8.524;2023-09-08T00:37:33;0.20;;;0.20;;
10029;SDS011;5055;52.054;8.524;2023-09-08T00:40:04;0.17;;;0.17;;
10029;SDS011;5055;52.054;8.524;2023-09-08T00:42:34;0.20;;;0.20;;
10029;SDS011;5055;52.054;8.524;2023-09-08T00:45:03;0.20;;;0.20;;
10029;SDS011;5055;52.054;8.524;2023-09-08T00:47:32;0.20;;;0.20;;
10029;SDS011;5055;52.054;8.524;2023-09-08T00:50:02;0.20;;;0.20;;
10029;SDS011;5055;52.054;8.524;2023-09-08T00:52:32;0.20;;;0.20;;
10029;SDS011;5055;52.054;8.524;2023-09-08T00:55:00;0.20;;;0.20;;
10029;SDS011;5055;52.054;8.524;2023-09-08T00:57:30;0.20;;;0.20;;
10029;SDS011;5055;52.054;8.524;2023-09-08T01:00:09;0.20;;;0.20;;
10029;SDS011;5055;52.054;8.524;2023-09-08T01:02:39;0.20;;;0.20;;
10029;SDS011;5055;52.054;8.524;2023-09-08T01:05:07;0.20;;;0.20;;
10029;SDS011;5055;52.054;8.524;2023-09-08T01:07:36;0.20;;;0.20;;
10029;SDS011;5055;52.054;8.524;2023-09-08T01:10:05;0.20;;;0.20;;
10029;SDS011;5055;52.054;8.524;2023-09-08T01:12:35;0.10;;;0.10;;
10029;SDS011;5055;52.054;8.524;2023-09-08T01:15:06;0.20;;;0.20;;
10029;SDS011;5055;52.054;8.524;2023-09-08T01:17:35;0.20;;;0.20;;
10029;SDS011;5055;52.054;8.524;2023-09-08T01:20:05;0.10;;;0.10;;
10029;SDS011;5055;52.054;8.524;2023-09-08T01:22:45;0.20;;;0.20;;
10029;SDS011;5055;52.054;8.524;2023-09-08T01:25:25;0.10;;;0.10;;
10029;SDS011;5055;52.054;8.524;2023-09-08T01:27:54;0.20;;;0.20;;
10029;SDS011;5055;52.054;8.524;2023-09-08T01:30:26;0.20;;;0.20;;
10029;SDS011;5055;52.054;8.524;2023-09-08T01:32:56;0.20;;;0.20;;
10029;SDS011;5055;52.054;8.524;2023-09-08T01:35:24;0.20;;;0.20;;
10029;SDS011;5055;52.054;8.524;2023-09-08T01:37:53;0.17;;;0.17;;
10029;SDS011;5055;52.054;8.524;2023-09-08T01:40:21;0.30;;;0.30;;
10029;SDS011;5055;52.054;8.524;2023-09-08T01:42:51;0.20;;;0.20;;
10029;SDS011;5055;52.054;8.524;2023-09-08T01:45:19;0.20;;;0.20;;
10029;SDS011;5055;52.054;8.524;2023-09-08T01:47:48;0.20;;;0.20;;
10029;SDS011;5055;52.054;8.524;2023-09-08T01:50:17;0.20;;;0.20;;
10029;SDS011;5055;52.054;8.524;2023-09-08T01:52:48;0.20;;;0.20;;
10029;SDS011;5055;52.054;8.524;2023-09-08T01:55:16;0.20;;;0.20;;
10029;SDS011;5055;52.054;8.524;2023-09-08T01:57:45;0.20;;;0.20;;
10029;SDS011;5055;52.054;8.524;2023-09-08T02:00:15;0.20;;;0.20;;
10029;SDS011;5055;52.054;8.524;2023-09-08T02:02:47;0.20;;;0.20;;
10029;SDS011;5055;52.054;8.524;2023-09-08T02:05:15;0.20;;;0.20;;
10029;SDS011;5055;52.054;8.524;2023-09-08T02:07:44;0.20;;;0.20;;
10029;SDS011;5055;52.054;8.524;2023-09-08T02:10:12;0.20;;;0.20;;
10029;SDS011;5055;52.054;8.524;2023-09-08T02:12:41;0.20;;;0.20;;
10029;SDS011;5055;52.054;8.524;2023-09-08T02:15:09;0.20;;;0.20;;
10029;SDS011;5055;52.054;8.524;2023-09-08T02:17:40;0.20;;;0.20;;
10029;SDS011;5055;52.054;8.524;2023-09-08T02:20:08;0.30;;;0.30;;
10029;SDS011;5055;52.054;8.524;2023-09-08T02:22:38;0.20;;;0.20;;
10029;SDS011;5055;52.054;8.524;2023-09-08T02:25:08;0.20;;;0.20;;
10029;SDS011;5055;52.054;8.524;2023-09-08T02:27:36;0.30;;;0.30;;
10029;SDS011;5055;52.054;8.524;2023-09-08T02:30:05;0.20;;;0.20;;
10029;SDS011;5055;52.054;8.524;2023-09-08T02:32:35;0.30;;;0.30;;
10029;SDS011;5055;52.054;8.524;2023-09-08T02:35:05;0.30;;;0.30;;
10029;SDS011;5055;52.054;8.524;2023-09-08T02:37:36;0.20;;;0.20;;
10029;SDS011;5055;52.054;8.524;2023-09-08T02:40:05;0.20;;;0.20;;
10029;SDS011;5055;52.054;8.524;2023-09-08T02:42:34;0.30;;;0.30;;
10029;SDS011;5055;52.054;8.524;2023-09-08T02:45:02;0.30;;;0.30;;
10029;SDS011;5055;52.054;8.524;2023-09-08T02:47:31;0.20;;;0.20;;
10029;SDS011;5055;52.054;8.524;2023-09-08T02:49:59;0.20;;;0.20;;
10029;SDS011;5055;52.054;8.524;2023-09-08T02:52:30;0.20;;;0.20;;
10029;SDS011;5055;52.054;8.524;2023-09-08T02:54:58;0.20;;;0.20;;
10029;SDS011;5055;52.054;8.524;2023-09-08T02:57:27;0.20;;;0.20;;
10029;SDS011;5055;52.054;8.524;2023-09-08T02:59:55;0.20;;;0.20;;
10029;SDS011;5055;52.054;8.524;2023-09-08T03:02:24;0.20;;;0.20;;
10029;SDS011;5055;52.054;8.524;2023-09-08T03:04:53;0.30;;;0.30;;
10029;SDS011;5055;52.054;8.524;2023-09-08T03:07:21;0.30;;;0.30;;
10029;SDS011;5055;52.054;8.524;2023-09-08T03:09:51;0.20;;;0.20;;
10029;SDS011;5055;52.054;8.524;2023-09-08T03:12:19;0.20;;;0.20;;
10029;SDS011;5055;52.054;8.524;2023-09-08T03:14:48;0.20;;;0.20;;
10029;SDS011;5055;52.054;8.524;2023-09-08T03:17:16;0.20;;;0.20;;
10029;SDS011;5055;52.054;8.524;2023-09-08T03:19:44;0.20;;;0.20;;
10029;SDS011;5055;52.054;8.524;2023-09-08T03:22:13;0.20;;;0.20;;
10029;SDS011;5055;52.054;8.524;2023-09-08T03:24:41;0.30;;;0.30;;
10029;SDS011;5055;52.054;8.524;2023-09-08T03:27:11;0.20;;;0.20;;
10029;SDS011;5055;52.054;8.524;2023-09-08T03:29:39;0.20;;;0.20;;
10029;SDS011;5055;52.054;8.524;2023-09-08T03:32:08;0.20;;;0.20;;
10029;SDS011;5055;52.054;8.524;2023-09-08T03:34:37;0.20;;;0.20;;
10029;SDS011;5055;52.054;8.524;2023-09-08T03:37:06;0.20;;;0.20;;
10029;SDS011;5055;52.054;8.524;2023-09-08T03:39:35;0.20;;;0.20;;
10029;SDS011;5055;52.054;8.524;2023-09-08T03:42:03;0.30;;;0.30;;
10029;SDS011;5055;52.054;8.524;2023-09-08T03:44:33;0.20;;;0.20;;
10029;SDS011;5055;52.054;8.524;2023-09-08T03:47:04;0.30;;;0.30;;
10029;SDS011;5055;52.054;8.524;2023-09-08T03:49:33;0.20;;;0.20;;
10029;SDS011;5055;52.054;8.524;2023-09-08T03:52:01;0.30;;;0.30;;
10029;SDS011;5055;52.054;8.524;2023-09-08T03:54:30;0.20;;;0.20;;
10029;SDS011;5055;52.054;8.524;2023-09-08T03:56:58;0.20;;;0.20;;
10029;SDS011;5055;52.054;8.524;2023-09-08T03:59:26;0.20;;;0.20;;
10029;SDS011;5055;52.054;8.524;2023-09-08T04:01:56;0.20;;;0.20;;
10029;SDS011;5055;52.054;8.524;2023-09-08T04:04:24;0.20;;;0.20;;
10029;SDS011;5055;52.054;8.524;2023-09-08T04:06:53;0.20;;;0.20;;
10029;SDS011;5055;52.054;8.524;2023-09-08T04:09:21;0.20;;;0.20;;
10029;SDS011;5055;52.054;8.524;2023-09-08T04:11:49;0.20;;;0.20;;
10029;SDS011;5055;52.054;8.524;2023-09-08T04:14:18;0.20;;;0.20;;
10029;SDS011;5055;52.054;8.524;2023-09-08T04:16:46;0.20;;;0.20;;
10029;SDS011;5055;52.054;8.524;2023-09-08T04:19:16;0.30;;;0.30;;
10029;SDS011;5055;52.054;8.524;2023-09-08T04:21:44;0.30;;;0.30;;
10029;SDS011;5055;52.054;8.524;2023-09-08T04:24:13;0.20;;;0.20;;
10029;SDS011;5055;52.054;8.524;2023-09-08T04:26:41;0.20;;;0.20;;
10029;SDS011;5055;52.054;8.524;2023-09-08T04:29:10;0.20;;;0.20;;
10029;SDS011;5055;52.054;8.524;2023-09-08T04:31:38;0.30;;;0.30;;
10029;SDS011;5055;52.054;8.524;2023-09-08T04:34:07;0.20;;;0.20;;
10029;SDS011;5055;52.054;8.524;2023-09-08T04:36:37;0.20;;;0.20;;
10029;SDS011;5055;52.054;8.524;2023-09-08T04:39:05;0.30;;;0.30;;
10029;SDS011;5055;52.054;8.524;2023-09-08T04:41:37;0.20;;;0.20;;
10029;SDS011;5055;52.054;8.524;2023-09-08T04:44:05;0.20;;;0.20;;
10029;SDS011;5055;52.054;8.524;2023-09-08T04:46:34;0.20;;;0.20;;
10029;SDS011;5055;52.054;8.524;2023-09-08T04:49:03;0.20;;;0.20;;
10029;SDS011;5055;52.054;8.524;2023-09-08T04:51:31;0.20;;;0.20;;
10029;SDS011;5055;52.054;8.524;2023-09-08T04:54:01;0.20;;;0.20;;
10029;SDS011;5055;52.054;8.524;2023-09-08T04:56:29;0.20;;;0.20;;
10029;SDS011;5055;52.054;8.524;2023-09-08T04:58:58;0.20;;;0.20;;
10029;SDS011;5055;52.054;8.524;2023-09-08T05:01:27;0.20;;;0.20;;
10029;SDS011;5055;52.054;8.524;2023-09-08T05:03:56;0.30;;;0.30;;
10029;SDS011;5055;52.054;8.524;2023-09-08T05:06:25;0.30;;;0.30;;
10029;SDS011;5055;52.054;8.524;2023-09-08T05:08:53;0.30;;;0.30;;
10029;SDS011;5055;52.054;8.524;2023-09-08T05:11:24;0.20;;;0.20;;
10029;SDS011;5055;52.054;8.524;2023-09-08T05:13:52;0.20;;;0.20;;
10029;SDS011;5055;52.054;8.524;2023-09-08T05:16:21;0.23;;;0.23;;
10029;SDS011;5055;52.054;8.524;2023-09-08T05:19:03;0.20;;;0.20;;
10029;SDS011;5055;52.054;8.524;2023-09-08T05:21:31;0.27;;;0.27;;
10029;SDS011;5055;52.054;8.524;2023-09-08T05:24:01;0.20;;;0.20;;
10029;SDS011;5055;52.054;8.524;2023-09-08T05:26:31;0.30;;;0.30;;
10029;SDS011;5055;52.054;8.524;2023-09-08T05:28:59;0.20;;;0.20;;
10029;SDS011;5055;52.054;8.524;2023-09-08T05:31:28;0.30;;;0.30;;
10029;SDS011;5055;52.054;8.524;2023-09-08T05:33:56;0.23;;;0.23;;
10029;SDS011;5055;52.054;8.524;2023-09-08T05:36:24;0.30;;;0.30;;
10029;SDS011;5055;52.054;8.524;2023-09-08T05:38:52;0.20;;;0.20;;
10029;SDS011;5055;52.054;8.524;2023-09-08T05:41:21;0.20;;;0.20;;
10029;SDS011;5055;52.054;8.524;2023-09-08T05:43:51;0.20;;;0.20;;
10029;SDS011;5055;52.054;8.524;2023-09-08T05:46:19;0.20;;;0.20;;
10029;SDS011;5055;52.054;8.524;2023-09-08T05:48:48;0.20;;;0.20;;
10029;SDS011;5055;52.054;8.524;2023-09-08T05:51:16;0.20;;;0.20;;
10029;SDS011;5055;52.054;8.524;2023-09-08T05:53:44;0.20;;;0.20;;
10029;SDS011;5055;52.054;8.524;2023-09-08T05:56:13;0.13;;;0.13;;
10029;SDS011;5055;52.054;8.524;2023-09-08T05:58:41;0.20;;;0.20;;
10029;SDS011;5055;52.054;8.524;2023-09-08T06:01:10;0.20;;;0.20;;
10029;SDS011;5055;52.054;8.524;2023-09-08T06:03:39;0.20;;;0.20;;
10029;SDS011;5055;52.054;8.524;2023-09-08T06:06:07;0.20;;;0.20;;
10029;SDS011;5055;52.054;8.524;2023-09-08T06:08:36;0.20;;;0.20;;
10029;SDS011;5055;52.054;8.524;2023-09-08T06:11:04;0.20;;;0.20;;
10029;SDS011;5055;52.054;8.524;2023-09-08T06:13:32;0.20;;;0.20;;
10029;SDS011;5055;52.054;8.524;2023-09-08T06:16:01;0.20;;;0.20;;
10029;SDS011;5055;52.054;8.524;2023-09-08T06:18:30;0.20;;;0.20;;
10029;SDS011;5055;52.054;8.524;2023-09-08T06:21:00;0.10;;;0.10;;
10029;SDS011;5055;52.054;8.524;2023-09-08T06:23:29;0.20;;;0.20;;
10029;SDS011;5055;52.054;8.524;2023-09-08T06:25:57;0.10;;;0.10;;
10029;SDS011;5055;52.054;8.524;2023-09-08T06:28:26;0.20;;;0.20;;
10029;SDS011;5055;52.054;8.524;2023-09-08T06:30:55;0.17;;;0.17;;
10029;SDS011;5055;52.054;8.524;2023-09-08T06:33:23;0.20;;;0.20;;
10029;SDS011;5055;52.054;8.524;2023-09-08T06:35:53;0.20;;;0.20;;
10029;SDS011;5055;52.054;8.524;2023-09-08T06:38:22;0.20;;;0.20;;
10029;SDS011;5055;52.054;8.524;2023-09-08T06:40:50;0.10;;;0.10;;
10029;SDS011;5055;52.054;8.524;2023-09-08T06:43:19;0.10;;;0.10;;
10029;SDS011;5055;52.054;8.524;2023-09-08T06:45:48;0.10;;;0.10;;
10029;SDS011;5055;52.054;8.524;2023-09-08T06:48:16;0.20;;;0.20;;
10029;SDS011;5055;52.054;8.524;2023-09-08T06:50:44;0.10;;;0.10;;
10029;SDS011;5055;52.054;8.524;2023-09-08T06:53:14;0.10;;;0.10;;
10029;SDS011;5055;52.054;8.524;2023-09-08T06:55:43;0.20;;;0.20;;
10029;SDS011;5055;52.054;8.524;2023-09-08T06:58:11;0.10;;;0.10;;
10029;SDS011;5055;52.054;8.524;2023-09-08T07:00:41;0.10;;;0.10;;
10029;SDS011;5055;52.054;8.524;2023-09-08T07:03:10;0.10;;;0.10;;
10029;SDS011;5055;52.054;8.524;2023-09-08T07:05:39;0.10;;;0.10;;
10029;SDS011;5055;52.054;8.524;2023-09-08T07:08:07;0.10;;;0.10;;
10029;SDS011;5055;52.054;8.524;2023-09-08T07:10:37;0.10;;;0.10;;
10029;SDS011;5055;52.054;8.524;2023-09-08T07:13:05;0.10;;;0.10;;
10029;SDS011;5055;52.054;8.524;2023-09-08T07:15:34;0.10;;;0.10;;
10029;SDS011;5055;52.054;8.524;2023-09-08T07:18:02;0.10;;;0.10;;
10029;SDS011;5055;52.054;8.524;2023-09-08T07:20:31;0.10;;;0.10;;
10029;SDS011;5055;52.054;8.524;2023-09-08T07:23:01;0.10;;;0.10;;
10029;SDS011;5055;52.054;8.524;2023-09-08T07:25:29;0.10;;;0.10;;
10029;SDS011;5055;52.054;8.524;2023-09-08T07:27:59;0.10;;;0.10;;
10029;SDS011;5055;52.054;8.524;2023-09-08T07:30:27;0.10;;;0.10;;
10029;SDS011;5055;52.054;8.524;2023-09-08T07:32:56;0.10;;;0.10;;
10029;SDS011;5055;52.054;8.524;2023-09-08T07:35:24;0.10;;;0.10;;
10029;SDS011;5055;52.054;8.524;2023-09-08T07:37:53;0.10;;;0.10;;
10029;SDS011;5055;52.054;8.524;2023-09-08T07:40:21;0.10;;;0.10;;
10029;SDS011;5055;52.054;8.524;2023-09-08T07:42:49;0.10;;;0.10;;
10029;SDS011;5055;52.054;8.524;2023-09-08T07:45:19;0.10;;;0.10;;
10029;SDS011;5055;52.054;8.524;2023-09-08T07:47:48;0.10;;;0.10;;
10029;SDS011;5055;52.054;8.524;2023-09-08T07:50:16;0.10;;;0.10;;
10029;SDS011;5055;52.054;8.524;2023-09-08T07:52:46;0.10;;;0.10;;
10029;SDS011;5055;52.054;8.524;2023-09-08T07:55:18;0.10;;;0.10;;
10029;SDS011;5055;52.054;8.524;2023-09-08T07:57:49;0.10;;;0.10;;
10029;SDS011;5055;52.054;8.524;2023-09-08T08:00:19;0.10;;;0.10;;
10029;SDS011;5055;52.054;8.524;2023-09-08T08:02:49;0.10;;;0.10;;
10029;SDS011;5055;52.054;8.524;2023-09-08T08:05:19;0.10;;;0.10;;
10029;SDS011;5055;52.054;8.524;2023-09-08T08:07:48;0.10;;;0.10;;
10029;SDS011;5055;52.054;8.524;2023-09-08T08:10:16;0.10;;;0.10;;
10029;SDS011;5055;52.054;8.524;2023-09-08T08:12:45;0.10;;;0.10;;
10029;SDS011;5055;52.054;8.524;2023-09-08T08:15:14;0.10;;;0.10;;
10029;SDS011;5055;52.054;8.524;2023-09-08T08:17:44;0.10;;;0.10;;
10029;SDS011;5055;52.054;8.524;2023-09-08T08:20:12;0.10;;;0.10;;
10029;SDS011;5055;52.054;8.524;2023-09-08T08:22:44;0.10;;;0.10;;
10029;SDS011;5055;52.054;8.524;2023-09-08T08:25:13;0.10;;;0.10;;
10029;SDS011;5055;52.054;8.524;2023-09-08T08:27:42;0.10;;;0.10;;
10029;SDS011;5055;52.054;8.524;2023-09-08T08:30:11;0.10;;;0.10;;
10029;SDS011;5055;52.054;8.524;2023-09-08T08:32:40;0.10;;;0.10;;
10029;SDS011;5055;52.054;8.524;2023-09-08T08:35:09;0.10;;;0.10;;
10029;SDS011;5055;52.054;8.524;2023-09-08T08:37:39;0.10;;;0.10;;
10029;SDS011;5055;52.054;8.524;2023-09-08T08:40:09;0.10;;;0.10;;
10029;SDS011;5055;52.054;8.524;2023-09-08T08:42:39;0.10;;;0.10;;
10029;SDS011;5055;52.054;8.524;2023-09-08T08:45:11;0.10;;;0.10;;
10029;SDS011;5055;52.054;8.524;2023-09-08T08:47:40;0.10;;;0.10;;
10029;SDS011;5055;52.054;8.524;2023-09-08T08:50:12;0.10;;;0.10;;
10029;SDS011;5055;52.054;8.524;2023-09-08T08:52:40;0.10;;;0.10;;
10029;SDS011;5055;52.054;8.524;2023-09-08T08:55:09;0.10;;;0.10;;
10029;SDS011;5055;52.054;8.524;2023-09-08T08:57:38;0.10;;;0.10;;
10029;SDS011;5055;52.054;8.524;2023-09-08T09:00:07;0.10;;;0.10;;
10029;SDS011;5055;52.054;8.524;2023-09-08T09:02:38;0.10;;;0.10;;
10029;SDS011;5055;52.054;8.524;2023-09-08T09:05:12;0.10;;;0.10;;
10029;SDS011;5055;52.054;8.524;2023-09-08T09:07:41;0.10;;;0.10;;
10029;SDS011;5055;52.054;8.524;2023-09-08T09:10:10;0.10;;;0.10;;
10029;SDS011;5055;52.054;8.524;2023-09-08T09:12:39;0.10;;;0.10;;
10029;SDS011;5055;52.054;8.524;2023-09-08T09:15:08;0.10;;;0.10;;
10029;SDS011;5055;52.054;8.524;2023-09-08T09:17:37;0.10;;;0.10;;
10029;SDS011;5055;52.054;8.524;2023-09-08T09:20:14;0.10;;;0.10;;
10029;SDS011;5055;52.054;8.524;2023-09-08T09:22:44;0.10;;;0.10;;
10029;SDS011;5055;52.054;8.524;2023-09-08T09:25:20;0.10;;;0.10;;
10029;SDS011;5055;52.054;8.524;2023-09-08T09:27:53;0.10;;;0.10;;
10029;SDS011;5055;52.054;8.524;2023-09-08T09:30:23;0.10;;;0.10;;
10029;SDS011;5055;52.054;8.524;2023-09-08T09:32:59;0.10;;;0.10;;
10029;SDS011;5055;52.054;8.524;2023-09-08T09:35:43;0.10;;;0.10;;
10029;SDS011;5055;52.054;8.524;2023-09-08T09:38:12;0.10;;;0.10;;
10029;SDS011;5055;52.054;8.524;2023-09-08T09:40:41;0.10;;;0.10;;
10029;SDS011;5055;52.054;8.524;2023-09-08T09:43:10;0.10;;;0.10;;
10029;SDS011;5055;52.054;8.524;2023-09-08T09:45:40;0.10;;;0.10;;
10029;SDS011;5055;52.054;8.524;2023-09-08T09:48:10;0.10;;;0.10;;
10029;SDS011;5055;52.054;8.524;2023-09-08T09:50:39;0.00;;;0.00;;
10029;SDS011;5055;52.054;8.524;2023-09-08T09:53:11;0.10;;;0.10;;
10029;SDS011;5055;52.054;8.524;2023-09-08T09:55:41;0.10;;;0.10;;
10029;SDS011;5055;52.054;8.524;2023-09-08T09:58:10;0.10;;;0.10;;
10029;SDS011;5055;52.054;8.524;2023-09-08T10:00:41;0.10;;;0.10;;
10029;SDS011;5055;52.054;8.524;2023-09-08T10:03:15;0.10;;;0.10;;
10029;SDS011;5055;52.054;8.524;2023-09-08T10:05:44;0.10;;;0.10;;
10029;SDS011;5055;52.054;8.524;2023-09-08T10:08:16;0.10;;;0.10;;
10029;SDS011;5055;52.054;8.524;2023-09-08T10:10:45;0.00;;;0.00;;
10029;SDS011;5055;52.054;8.524;2023-09-08T10:13:18;0.10;;;0.10;;
10029;SDS011;5055;52.054;8.524;2023-09-08T10:15:51;0.10;;;0.10;;
10029;SDS011;5055;52.054;8.524;2023-09-08T10:18:23;0.00;;;0.00;;
10029;SDS011;5055;52.054;8.524;2023-09-08T10:20:52;0.00;;;0.00;;
10029;SDS011;5055;52.054;8.524;2023-09-08T10:23:27;0.10;;;0.10;;
10029;SDS011;5055;52.054;8.524;2023-09-08T10:26:01;0.00;;;0.00;;
10029;SDS011;5055;52.054;8.524;2023-09-08T10:28:33;0.00;;;0.00;;
10029;SDS011;5055;52.054;8.524;2023-09-08T10:31:04;0.10;;;0.10;;
10029;SDS011;5055;52.054;8.524;2023-09-08T10:33:33;0.10;;;0.10;;
10029;SDS011;5055;52.054;8.524;2023-09-08T10:36:03;0.10;;;0.10;;
10029;SDS011;5055;52.054;8.524;2023-09-08T10:38:35;0.10;;;0.10;;
10029;SDS011;5055;52.054;8.524;2023-09-08T10:43:56;0.10;;;0.10;;
10029;SDS011;5055;52.054;8.524;2023-09-08T10:46:27;0.00;;;0.00;;
10029;SDS011;5055;52.054;8.524;2023-09-08T10:49:00;0.10;;;0.10;;
10029;SDS011;5055;52.054;8.524;2023-09-08T10:51:30;0.10;;;0.10;;
10029;SDS011;5055;52.054;8.524;2023-09-08T10:54:00;0.00;;;0.00;;
10029;SDS011;5055;52.054;8.524;2023-09-08T10:56:46;0.00;;;0.00;;
10029;SDS011;5055;52.054;8.524;2023-09-08T10:59:17;0.00;;;0.00;;
10029;SDS011;5055;52.054;8.524;2023-09-08T11:01:47;0.10;;;0.10;;
10029;SDS011;5055;52.054;8.524;2023-09-08T11:04:15;0.10;;;0.10;;
10029;SDS011;5055;52.054;8.524;2023-09-08T11:06:46;0.10;;;0.10;;
10029;SDS011;5055;52.054;8.524;2023-09-08T11:09:15;0.10;;;0.10;;
10029;SDS011;5055;52.054;8.524;2023-09-08T11:11:43;0.10;;;0.10;;
10029;SDS011;5055;52.054;8.524;2023-09-08T11:14:13;0.00;;;0.00;;
10029;SDS011;5055;52.054;8.524;2023-09-08T11:16:42;0.10;;;0.10;;
10029;SDS011;5055;52.054;8.524;2023-09-08T11:19:14;0.00;;;0.00;;
10029;SDS011;5055;52.054;8.524;2023-09-08T11:21:43;0.10;;;0.10;;
10029;SDS011;5055;52.054;8.524;2023-09-08T11:24:11;0.00;;;0.00;;
10029;SDS011;5055;52.054;8.524;2023-09-08T11:26:42;0.00;;;0.00;;
10029;SDS011;5055;52.054;8.524;2023-09-08T11:29:13;0.00;;;0.00;;
10029;SDS011;5055;52.054;8.524;2023-09-08T11:31:41;0.10;;;0.10;;
10029;SDS011;5055;52.054;8.524;2023-09-08T11:34:20;0.00;;;0.00;;
10029;SDS011;5055;52.054;8.524;2023-09-08T11:36:48;0.10;;;0.10;;
10029;SDS011;5055;52.054;8.524;2023-09-08T11:39:18;0.00;;;0.00;;
10029;SDS011;5055;52.054;8.524;2023-09-08T11:41:48;0.10;;;0.10;;
10029;SDS011;5055;52.054;8.524;2023-09-08T11:44:16;0.00;;;0.00;;
10029;SDS011;5055;52.054;8.524;2023-09-08T11:46:46;0.00;;;0.00;;
10029;SDS011;5055;52.054;8.524;2023-09-08T11:49:18;0.00;;;0.00;;
10029;SDS011;5055;52.054;8.524;2023-09-08T11:51:47;0.00;;;0.00;;
10029;SDS011;5055;52.054;8.524;2023-09-08T11:54:16;0.08;;;0.08;;
10029;SDS011;5055;52.054;8.524;2023-09-08T11:56:45;0.08;;;0.08;;
10029;SDS011;5055;52.054;8.524;2023-09-08T11:59:15;0.00;;;0.00;;
10029;SDS011;5055;52.054;8.524;2023-09-08T12:01:43;0.10;;;0.10;;
10029;SDS011;5055;52.054;8.524;2023-09-08T12:04:16;0.00;;;0.00;;
10029;SDS011;5055;52.054;8.524;2023-09-08T12:06:47;0.00;;;0.00;;
10029;SDS011;5055;52.054;8.524;2023-09-08T12:09:16;0.05;;;0.05;;
10029;SDS011;5055;52.054;8.524;2023-09-08T12:11:45;0.10;;;0.10;;
10029;SDS011;5055;52.054;8.524;2023-09-08T12:14:15;0.10;;;0.10;;
10029;SDS011;5055;52.054;8.524;2023-09-08T12:16:44;0.03;;;0.03;;
10029;SDS011;5055;52.054;8.524;2023-09-08T12:19:28;0.00;;;0.00;;
10029;SDS011;5055;52.054;8.524;2023-09-08T12:21:58;0.10;;;0.10;;
10029;SDS011;5055;52.054;8.524;2023-09-08T12:24:48;0.10;;;0.10;;
10029;SDS011;5055;52.054;8.524;2023-09-08T12:27:18;0.00;;;0.00;;
10029;SDS011;5055;52.054;8.524;2023-09-08T12:29:55;0.00;;;0.00;;
10029;SDS011;5055;52.054;8.524;2023-09-08T12:32:24;0.10;;;0.10;;
10029;SDS011;5055;52.054;8.524;2023-09-08T12:34:53;0.10;;;0.10;;
10029;SDS011;5055;52.054;8.524;2023-09-08T12:37:21;0.10;;;0.10;;
10029;SDS011;5055;52.054;8.524;2023-09-08T12:39:50;0.00;;;0.00;;
10029;SDS011;5055;52.054;8.524;2023-09-08T12:42:20;0.00;;;0.00;;
10029;SDS011;5055;52.054;8.524;2023-09-08T12:44:52;0.00;;;0.00;;
10029;SDS011;5055;52.054;8.524;2023-09-08T12:47:22;0.00;;;0.00;;
10029;SDS011;5055;52.054;8.524;2023-09-08T12:49:50;0.00;;;0.00;;
10029;SDS011;5055;52.054;8.524;2023-09-08T12:52:19;0.10;;;0.10;;
10029;SDS011;5055;52.054;8.524;2023-09-08T12:54:47;0.10;;;0.10;;
10029;SDS011;5055;52.054;8.524;2023-09-08T12:57:15;0.00;;;0.00;;
10029;SDS011;5055;52.054;8.524;2023-09-08T12:59:44;0.00;;;0.00;;
10029;SDS011;5055;52.054;8.524;2023-09-08T13:02:14;0.00;;;0.00;;
10029;SDS011;5055;52.054;8.524;2023-09-08T13:04:42;0.00;;;0.00;;
10029;SDS011;5055;52.054;8.524;2023-09-08T13:07:15;0.00;;;0.00;;
10029;SDS011;5055;52.054;8.524;2023-09-08T13:09:43;0.00;;;0.00;;
10029;SDS011;5055;52.054;8.524;2023-09-08T13:12:12;0.00;;;0.00;;
10029;SDS011;5055;52.054;8.524;2023-09-08T13:14:40;0.00;;;0.00;;
10029;SDS011;5055;52.054;8.524;2023-09-08T13:17:10;0.00;;;0.00;;
10029;SDS011;5055;52.054;8.524;2023-09-08T13:19:40;0.00;;;0.00;;
10029;SDS011;5055;52.054;8.524;2023-09-08T13:22:08;0.00;;;0.00;;
10029;SDS011;5055;52.054;8.524;2023-09-08T13:24:37;0.00;;;0.00;;
10029;SDS011;5055;52.054;8.524;2023-09-08T13:27:05;0.00;;;0.00;;
10029;SDS011;5055;52.054;8.524;2023-09-08T13:29:34;0.00;;;0.00;;
10029;SDS011;5055;52.054;8.524;2023-09-08T13:32:03;0.00;;;0.00;;
10029;SDS011;5055;52.054;8.524;2023-09-08T13:34:32;0.00;;;0.00;;
10029;SDS011;5055;52.054;8.524;2023-09-08T13:37:02;0.00;;;0.00;;
10029;SDS011;5055;52.054;8.524;2023-09-08T13:39:31;0.00;;;0.00;;
10029;SDS011;5055;52.054;8.524;2023-09-08T13:41:59;0.00;;;0.00;;
10029;SDS011;5055;52.054;8.524;2023-09-08T13:44:29;0.00;;;0.00;;
10029;SDS011;5055;52.054;8.524;2023-09-08T13:46:57;0.00;;;0.00;;
10029;SDS011;5055;52.054;8.524;2023-09-08T13:49:26;0.00;;;0.00;;
10029;SDS011;5055;52.054;8.524;2023-09-08T13:51:55;0.00;;;0.00;;
10029;SDS011;5055;52.054;8.524;2023-09-08T13:54:28;0.00;;;0.00;;
10029;SDS011;5055;52.054;8.524;2023-09-08T13:57:00;0.00;;;0.00;;
10029;SDS011;5055;52.054;8.524;2023-09-08T13:59:34;0.00;;;0.00;;
10029;SDS011;5055;52.054;8.524;2023-09-08T14:02:08;0.00;;;0.00;;
10029;SDS011;5055;52.054;8.524;2023-09-08T14:04:39;0.00;;;0.00;;
10029;SDS011;5055;52.054;8.524;2023-09-08T14:07:14;0.00;;;0.00;;
10029;SDS011;5055;52.054;8.524;2023-09-08T14:09:52;0.00;;;0.00;;
10029;SDS011;5055;52.054;8.524;2023-09-08T14:12:36;0.00;;;0.00;;
10029;SDS011;5055;52.054;8.524;2023-09-08T14:15:05;0.00;;;0.00;;
10029;SDS011;5055;52.054;8.524;2023-09-08T14:17:34;0.00;;;0.00;;
10029;SDS011;5055;52.054;8.524;2023-09-08T14:20:03;0.00;;;0.00;;
10029;SDS011;5055;52.054;8.524;2023-09-08T14:22:32;0.00;;;0.00;;
10029;SDS011;5055;52.054;8.524;2023-09-08T14:25:02;0.00;;;0.00;;
10029;SDS011;5055;52.054;8.524;2023-09-08T14:27:31;0.00;;;0.00;;
10029;SDS011;5055;52.054;8.524;2023-09-08T14:30:00;0.00;;;0.00;;
10029;SDS011;5055;52.054;8.524;2023-09-08T14:32:31;0.00;;;0.00;;
10029;SDS011;5055;52.054;8.524;2023-09-08T14:35:01;0.00;;;0.00;;
10029;SDS011;5055;52.054;8.524;2023-09-08T14:37:29;0.00;;;0.00;;
10029;SDS011;5055;52.054;8.524;2023-09-08T14:39:58;0.00;;;0.00;;
10029;SDS011;5055;52.054;8.524;2023-09-08T14:42:28;0.00;;;0.00;;
10029;SDS011;5055;52.054;8.524;2023-09-08T14:44:56;0.00;;;0.00;;
10029;SDS011;5055;52.054;8.524;2023-09-08T14:47:25;0.00;;;0.00;;
10029;SDS011;5055;52.054;8.524;2023-09-08T14:49:53;0.00;;;0.00;;
10029;SDS011;5055;52.054;8.524;2023-09-08T14:52:23;0.00;;;0.00;;
10029;SDS011;5055;52.054;8.524;2023-09-08T14:54:51;0.00;;;0.00;;
10029;SDS011;5055;52.054;8.524;2023-09-08T14:57:19;0.00;;;0.00;;
10029;SDS011;5055;52.054;8.524;2023-09-08T14:59:49;0.00;;;0.00;;
10029;SDS011;5055;52.054;8.524;2023-09-08T15:02:20;0.00;;;0.00;;
10029;SDS011;5055;52.054;8.524;2023-09-08T15:04:49;0.00;;;0.00;;
10029;SDS011;5055;52.054;8.524;2023-09-08T15:07:17;0.00;;;0.00;;
10029;SDS011;5055;52.054;8.524;2023-09-08T15:09:46;0.00;;;0.00;;
10029;SDS011;5055;52.054;8.524;2023-09-08T15:12:16;0.00;;;0.00;;
10029;SDS011;5055;52.054;8.524;2023-09-08T15:14:44;0.00;;;0.00;;
10029;SDS011;5055;52.054;8.524;2023-09-08T15:17:14;0.00;;;0.00;;